sensor_id;sensor_type;location;lat;lon;timestamp;P1;durP1;ratioP1;P2;durP2;ratioP2
70026;SDS011;57506;50.092;15.804;2023-08-06T00:00:06;8.20;;;3.80;;
70026;SDS011;57506;50.092;15.804;2023-08-06T00:02:33;4.23;;;1.60;;
70026;SDS011;57506;50.092;15.804;2023-08-06T00:04:59;5.90;;;2.22;;
70026;SDS011;57506;50.092;15.804;2023-08-06T00:07:24;3.67;;;1.57;;
70026;SDS011;57506;50.092;15.804;2023-08-06T00:09:50;4.87;;;2.40;;
70026;SDS011;57506;50.092;15.804;2023-08-06T00:12:15;4.95;;;2.30;;
70026;SDS011;57506;50.092;15.804;2023-08-06T00:14:41;4.40;;;2.30;;
70026;SDS011;57506;50.092;15.804;2023-08-06T00:17:07;4.07;;;1.98;;
70026;SDS011;57506;50.092;15.804;2023-08-06T00:19:33;7.00;;;2.47;;
70026;SDS011;57506;50.092;15.804;2023-08-06T00:21:58;3.43;;;1.43;;
70026;SDS011;57506;50.092;15.804;2023-08-06T00:24:24;4.25;;;1.73;;
70026;SDS011;57506;50.092;15.804;2023-08-06T00:26:49;2.37;;;0.73;;
70026;SDS011;57506;50.092;15.804;2023-08-06T00:29:15;2.83;;;1.07;;
70026;SDS011;57506;50.092;15.804;2023-08-06T00:31:40;4.90;;;2.20;;
70026;SDS011;57506;50.092;15.804;2023-08-06T00:34:06;6.10;;;1.53;;
70026;SDS011;57506;50.092;15.804;2023-08-06T00:36:31;4.45;;;2.08;;
70026;SDS011;57506;50.092;15.804;2023-08-06T00:38:59;4.00;;;1.63;;
70026;SDS011;57506;50.092;15.804;2023-08-06T00:41:24;4.70;;;1.48;;
70026;SDS011;57506;50.092;15.804;2023-08-06T00:43:50;3.87;;;1.50;;
70026;SDS011;57506;50.092;15.804;2023-08-06T00:46:17;4.50;;;2.00;;
70026;SDS011;57506;50.092;15.804;2023-08-06T00:48:42;4.37;;;1.60;;
70026;SDS011;57506;50.092;15.804;2023-08-06T00:51:09;4.75;;;1.70;;
70026;SDS011;57506;50.092;15.804;2023-08-06T00:53:37;3.97;;;1.67;;
70026;SDS011;57506;50.092;15.804;2023-08-06T00:56:03;3.43;;;1.43;;
70026;SDS011;57506;50.092;15.804;2023-08-06T00:58:29;3.03;;;1.02;;
70026;SDS011;57506;50.092;15.804;2023-08-06T01:00:55;4.68;;;1.15;;
70026;SDS011;57506;50.092;15.804;2023-08-06T01:03:20;2.90;;;0.93;;
70026;SDS011;57506;50.092;15.804;2023-08-06T01:05:46;3.67;;;1.30;;
70026;SDS011;57506;50.092;15.804;2023-08-06T01:16:09;4.00;;;1.63;;
70026;SDS011;57506;50.092;15.804;2023-08-06T01:18:35;3.97;;;1.52;;
70026;SDS011;57506;50.092;15.804;2023-08-06T01:21:02;3.80;;;1.80;;
70026;SDS011;57506;50.092;15.804;2023-08-06T01:23:28;4.57;;;1.90;;
70026;SDS011;57506;50.092;15.804;2023-08-06T01:26:02;4.25;;;1.45;;
70026;SDS011;57506;50.092;15.804;2023-08-06T01:31:33;2.67;;;1.00;;
70026;SDS011;57506;50.092;15.804;2023-08-06T01:34:02;4.60;;;1.50;;
70026;SDS011;57506;50.092;15.804;2023-08-06T01:36:31;6.25;;;1.45;;
70026;SDS011;57506;50.092;15.804;2023-08-06T01:38:57;4.00;;;1.80;;
70026;SDS011;57506;50.092;15.804;2023-08-06T01:41:23;5.33;;;1.93;;
70026;SDS011;57506;50.092;15.804;2023-08-06T01:43:48;3.63;;;1.40;;
70026;SDS011;57506;50.092;15.804;2023-08-06T01:46:14;3.83;;;1.57;;
70026;SDS011;57506;50.092;15.804;2023-08-06T01:48:39;3.42;;;1.42;;
70026;SDS011;57506;50.092;15.804;2023-08-06T01:51:05;3.27;;;1.33;;
70026;SDS011;57506;50.092;15.804;2023-08-06T01:53:31;5.30;;;1.80;;
70026;SDS011;57506;50.092;15.804;2023-08-06T01:55:57;4.78;;;2.72;;
70026;SDS011;57506;50.092;15.804;2023-08-06T01:58:23;3.90;;;1.70;;
70026;SDS011;57506;50.092;15.804;2023-08-06T02:00:48;4.47;;;1.95;;
70026;SDS011;57506;50.092;15.804;2023-08-06T02:03:14;5.53;;;2.03;;
70026;SDS011;57506;50.092;15.804;2023-08-06T02:05:40;4.83;;;1.83;;
70026;SDS011;57506;50.092;15.804;2023-08-06T02:08:05;3.65;;;1.50;;
70026;SDS011;57506;50.092;15.804;2023-08-06T02:10:31;2.63;;;1.17;;
70026;SDS011;57506;50.092;15.804;2023-08-06T02:12:57;4.30;;;1.47;;
70026;SDS011;57506;50.092;15.804;2023-08-06T02:15:22;3.80;;;1.73;;
70026;SDS011;57506;50.092;15.804;2023-08-06T02:17:48;3.57;;;1.43;;
70026;SDS011;57506;50.092;15.804;2023-08-06T02:20:13;4.97;;;2.13;;
70026;SDS011;57506;50.092;15.804;2023-08-06T02:22:39;5.38;;;2.72;;
70026;SDS011;57506;50.092;15.804;2023-08-06T02:25:04;5.33;;;2.53;;
70026;SDS011;57506;50.092;15.804;2023-08-06T02:27:30;6.20;;;3.42;;
70026;SDS011;57506;50.092;15.804;2023-08-06T02:29:56;4.77;;;2.37;;
70026;SDS011;57506;50.092;15.804;2023-08-06T02:32:21;4.20;;;2.13;;
70026;SDS011;57506;50.092;15.804;2023-08-06T02:34:47;4.30;;;2.10;;
70026;SDS011;57506;50.092;15.804;2023-08-06T02:37:12;3.17;;;1.30;;
70026;SDS011;57506;50.092;15.804;2023-08-06T02:39:38;5.30;;;2.93;;
70026;SDS011;57506;50.092;15.804;2023-08-06T02:42:08;4.30;;;2.03;;
70026;SDS011;57506;50.092;15.804;2023-08-06T02:44:34;7.78;;;2.10;;
70026;SDS011;57506;50.092;15.804;2023-08-06T02:47:00;3.05;;;1.35;;
70026;SDS011;57506;50.092;15.804;2023-08-06T02:49:25;3.80;;;1.63;;
70026;SDS011;57506;50.092;15.804;2023-08-06T02:51:51;5.57;;;1.95;;
70026;SDS011;57506;50.092;15.804;2023-08-06T02:54:17;5.57;;;2.97;;
70026;SDS011;57506;50.092;15.804;2023-08-06T02:56:44;2.85;;;1.02;;
70026;SDS011;57506;50.092;15.804;2023-08-06T02:59:10;5.07;;;2.38;;
70026;SDS011;57506;50.092;15.804;2023-08-06T03:01:36;4.07;;;2.10;;
70026;SDS011;57506;50.092;15.804;2023-08-06T03:04:02;3.23;;;1.17;;
70026;SDS011;57506;50.092;15.804;2023-08-06T03:06:27;3.42;;;1.55;;
70026;SDS011;57506;50.092;15.804;2023-08-06T03:08:53;4.50;;;1.70;;
70026;SDS011;57506;50.092;15.804;2023-08-06T03:11:18;5.37;;;2.43;;
70026;SDS011;57506;50.092;15.804;2023-08-06T03:13:44;5.03;;;2.03;;
70026;SDS011;57506;50.092;15.804;2023-08-06T03:16:10;7.90;;;3.30;;
70026;SDS011;57506;50.092;15.804;2023-08-06T03:18:35;4.20;;;2.00;;
70026;SDS011;57506;50.092;15.804;2023-08-06T03:21:01;5.13;;;2.17;;
70026;SDS011;57506;50.092;15.804;2023-08-06T03:23:27;5.47;;;2.10;;
70026;SDS011;57506;50.092;15.804;2023-08-06T03:25:52;3.73;;;1.53;;
70026;SDS011;57506;50.092;15.804;2023-08-06T03:28:18;5.80;;;1.73;;
70026;SDS011;57506;50.092;15.804;2023-08-06T03:30:43;4.30;;;1.90;;
70026;SDS011;57506;50.092;15.804;2023-08-06T03:33:09;4.53;;;1.50;;
70026;SDS011;57506;50.092;15.804;2023-08-06T03:35:34;4.70;;;1.43;;
70026;SDS011;57506;50.092;15.804;2023-08-06T03:38:00;3.73;;;1.80;;
70026;SDS011;57506;50.092;15.804;2023-08-06T03:40:25;3.17;;;1.30;;
70026;SDS011;57506;50.092;15.804;2023-08-06T03:42:51;3.13;;;1.13;;
70026;SDS011;57506;50.092;15.804;2023-08-06T03:45:16;4.93;;;1.43;;
70026;SDS011;57506;50.092;15.804;2023-08-06T03:47:42;2.15;;;0.57;;
70026;SDS011;57506;50.092;15.804;2023-08-06T03:50:08;2.40;;;0.70;;
70026;SDS011;57506;50.092;15.804;2023-08-06T03:52:34;2.58;;;0.77;;
70026;SDS011;57506;50.092;15.804;2023-08-06T03:54:59;2.63;;;0.83;;
70026;SDS011;57506;50.092;15.804;2023-08-06T03:57:25;3.47;;;0.70;;
70026;SDS011;57506;50.092;15.804;2023-08-06T03:59:50;5.32;;;1.00;;
70026;SDS011;57506;50.092;15.804;2023-08-06T04:02:16;2.93;;;1.00;;
70026;SDS011;57506;50.092;15.804;2023-08-06T04:04:41;3.13;;;0.97;;
70026;SDS011;57506;50.092;15.804;2023-08-06T04:07:07;4.55;;;1.02;;
70026;SDS011;57506;50.092;15.804;2023-08-06T04:09:32;2.03;;;0.40;;
70026;SDS011;57506;50.092;15.804;2023-08-06T04:11:58;3.53;;;0.90;;
70026;SDS011;57506;50.092;15.804;2023-08-06T04:14:23;2.85;;;0.70;;
70026;SDS011;57506;50.092;15.804;2023-08-06T04:16:51;2.67;;;0.50;;
70026;SDS011;57506;50.092;15.804;2023-08-06T04:19:16;2.63;;;0.87;;
70026;SDS011;57506;50.092;15.804;2023-08-06T04:21:42;2.77;;;0.97;;
70026;SDS011;57506;50.092;15.804;2023-08-06T04:24:07;2.30;;;0.50;;
70026;SDS011;57506;50.092;15.804;2023-08-06T04:26:33;2.20;;;0.60;;
70026;SDS011;57506;50.092;15.804;2023-08-06T04:28:58;2.27;;;0.70;;
70026;SDS011;57506;50.092;15.804;2023-08-06T04:31:24;2.88;;;1.05;;
70026;SDS011;57506;50.092;15.804;2023-08-06T04:33:49;2.37;;;0.60;;
70026;SDS011;57506;50.092;15.804;2023-08-06T04:36:15;2.13;;;0.40;;
70026;SDS011;57506;50.092;15.804;2023-08-06T04:38:40;1.80;;;0.50;;
70026;SDS011;57506;50.092;15.804;2023-08-06T04:41:10;2.38;;;0.70;;
70026;SDS011;57506;50.092;15.804;2023-08-06T04:43:36;2.47;;;0.63;;
70026;SDS011;57506;50.092;15.804;2023-08-06T04:46:02;2.25;;;0.52;;
70026;SDS011;57506;50.092;15.804;2023-08-06T04:48:27;1.53;;;0.27;;
70026;SDS011;57506;50.092;15.804;2023-08-06T04:50:53;3.70;;;0.70;;
70026;SDS011;57506;50.092;15.804;2023-08-06T04:53:19;2.57;;;0.73;;
70026;SDS011;57506;50.092;15.804;2023-08-06T04:55:45;1.80;;;0.47;;
70026;SDS011;57506;50.092;15.804;2023-08-06T04:58:11;2.10;;;0.50;;
70026;SDS011;57506;50.092;15.804;2023-08-06T05:00:37;2.50;;;0.70;;
70026;SDS011;57506;50.092;15.804;2023-08-06T05:03:03;2.50;;;0.60;;
70026;SDS011;57506;50.092;15.804;2023-08-06T05:05:28;2.40;;;0.70;;
70026;SDS011;57506;50.092;15.804;2023-08-06T05:07:55;2.13;;;0.60;;
70026;SDS011;57506;50.092;15.804;2023-08-06T05:10:24;2.10;;;0.60;;
70026;SDS011;57506;50.092;15.804;2023-08-06T05:12:50;2.50;;;0.82;;
70026;SDS011;57506;50.092;15.804;2023-08-06T05:15:18;2.00;;;0.47;;
70026;SDS011;57506;50.092;15.804;2023-08-06T05:17:47;2.28;;;0.40;;
70026;SDS011;57506;50.092;15.804;2023-08-06T05:20:12;2.57;;;0.70;;
70026;SDS011;57506;50.092;15.804;2023-08-06T05:22:38;2.47;;;0.70;;
70026;SDS011;57506;50.092;15.804;2023-08-06T05:25:03;2.63;;;0.73;;
70026;SDS011;57506;50.092;15.804;2023-08-06T05:27:30;2.55;;;0.75;;
70026;SDS011;57506;50.092;15.804;2023-08-06T05:29:55;2.63;;;0.80;;
70026;SDS011;57506;50.092;15.804;2023-08-06T05:32:21;2.35;;;0.73;;
70026;SDS011;57506;50.092;15.804;2023-08-06T05:34:47;1.98;;;0.50;;
70026;SDS011;57506;50.092;15.804;2023-08-06T05:37:13;1.80;;;0.40;;
70026;SDS011;57506;50.092;15.804;2023-08-06T05:39:38;2.83;;;1.00;;
70026;SDS011;57506;50.092;15.804;2023-08-06T05:42:04;2.67;;;0.60;;
70026;SDS011;57506;50.092;15.804;2023-08-06T05:44:30;3.10;;;0.80;;
70026;SDS011;57506;50.092;15.804;2023-08-06T05:46:56;4.10;;;1.73;;
70026;SDS011;57506;50.092;15.804;2023-08-06T05:49:21;2.87;;;1.10;;
70026;SDS011;57506;50.092;15.804;2023-08-06T05:51:47;2.07;;;0.50;;
70026;SDS011;57506;50.092;15.804;2023-08-06T05:54:13;4.25;;;2.17;;
70026;SDS011;57506;50.092;15.804;2023-08-06T05:56:38;3.77;;;1.13;;
70026;SDS011;57506;50.092;15.804;2023-08-06T05:59:04;4.63;;;1.97;;
70026;SDS011;57506;50.092;15.804;2023-08-06T06:01:29;5.50;;;1.70;;
70026;SDS011;57506;50.092;15.804;2023-08-06T06:03:55;1.33;;;0.20;;
70026;SDS011;57506;50.092;15.804;2023-08-06T06:06:20;3.07;;;1.23;;
70026;SDS011;57506;50.092;15.804;2023-08-06T06:08:46;3.22;;;1.45;;
70026;SDS011;57506;50.092;15.804;2023-08-06T06:11:12;3.43;;;1.37;;
70026;SDS011;57506;50.092;15.804;2023-08-06T06:13:37;3.63;;;1.23;;
70026;SDS011;57506;50.092;15.804;2023-08-06T06:16:03;3.65;;;1.70;;
70026;SDS011;57506;50.092;15.804;2023-08-06T06:18:28;7.13;;;1.60;;
70026;SDS011;57506;50.092;15.804;2023-08-06T06:20:54;3.40;;;1.30;;
70026;SDS011;57506;50.092;15.804;2023-08-06T06:23:19;3.90;;;1.30;;
70026;SDS011;57506;50.092;15.804;2023-08-06T06:25:48;3.20;;;1.33;;
70026;SDS011;57506;50.092;15.804;2023-08-06T06:28:18;4.30;;;1.77;;
70026;SDS011;57506;50.092;15.804;2023-08-06T06:30:44;3.40;;;1.38;;
70026;SDS011;57506;50.092;15.804;2023-08-06T06:33:09;3.77;;;1.67;;
70026;SDS011;57506;50.092;15.804;2023-08-06T06:35:35;3.10;;;1.25;;
70026;SDS011;57506;50.092;15.804;2023-08-06T06:38:01;2.63;;;0.90;;
70026;SDS011;57506;50.092;15.804;2023-08-06T06:40:27;3.58;;;1.20;;
70026;SDS011;57506;50.092;15.804;2023-08-06T06:42:53;2.63;;;0.93;;
70026;SDS011;57506;50.092;15.804;2023-08-06T06:45:18;2.40;;;0.70;;
70026;SDS011;57506;50.092;15.804;2023-08-06T06:47:44;3.17;;;1.27;;
70026;SDS011;57506;50.092;15.804;2023-08-06T06:50:10;3.10;;;1.38;;
70026;SDS011;57506;50.092;15.804;2023-08-06T06:52:35;3.03;;;0.97;;
70026;SDS011;57506;50.092;15.804;2023-08-06T06:55:01;3.35;;;1.20;;
70026;SDS011;57506;50.092;15.804;2023-08-06T06:57:27;3.70;;;1.47;;
70026;SDS011;57506;50.092;15.804;2023-08-06T06:59:52;3.00;;;1.20;;
70026;SDS011;57506;50.092;15.804;2023-08-06T07:02:18;3.00;;;0.90;;
70026;SDS011;57506;50.092;15.804;2023-08-06T07:04:43;3.17;;;1.40;;
70026;SDS011;57506;50.092;15.804;2023-08-06T07:07:09;3.42;;;1.20;;
70026;SDS011;57506;50.092;15.804;2023-08-06T07:09:35;2.60;;;0.80;;
70026;SDS011;57506;50.092;15.804;2023-08-06T07:12:01;3.00;;;1.03;;
70026;SDS011;57506;50.092;15.804;2023-08-06T07:14:28;3.63;;;1.10;;
70026;SDS011;57506;50.092;15.804;2023-08-06T07:16:53;3.20;;;0.93;;
70026;SDS011;57506;50.092;15.804;2023-08-06T07:19:19;3.00;;;1.10;;
70026;SDS011;57506;50.092;15.804;2023-08-06T07:21:45;2.63;;;0.85;;
70026;SDS011;57506;50.092;15.804;2023-08-06T07:24:11;2.23;;;0.60;;
70026;SDS011;57506;50.092;15.804;2023-08-06T07:26:37;2.63;;;0.88;;
70026;SDS011;57506;50.092;15.804;2023-08-06T07:29:05;3.30;;;1.30;;
70026;SDS011;57506;50.092;15.804;2023-08-06T07:31:30;3.43;;;1.13;;
70026;SDS011;57506;50.092;15.804;2023-08-06T07:33:56;3.90;;;1.10;;
70026;SDS011;57506;50.092;15.804;2023-08-06T07:36:21;2.83;;;0.90;;
70026;SDS011;57506;50.092;15.804;2023-08-06T07:38:47;3.00;;;0.90;;
70026;SDS011;57506;50.092;15.804;2023-08-06T07:41:16;3.20;;;1.33;;
70026;SDS011;57506;50.092;15.804;2023-08-06T07:43:42;3.77;;;1.17;;
70026;SDS011;57506;50.092;15.804;2023-08-06T07:46:07;2.70;;;0.73;;
70026;SDS011;57506;50.092;15.804;2023-08-06T07:48:33;2.67;;;0.87;;
70026;SDS011;57506;50.092;15.804;2023-08-06T07:50:59;2.42;;;0.75;;
70026;SDS011;57506;50.092;15.804;2023-08-06T07:53:25;2.70;;;0.80;;
70026;SDS011;57506;50.092;15.804;2023-08-06T07:55:57;2.80;;;0.77;;
70026;SDS011;57506;50.092;15.804;2023-08-06T07:58:24;3.67;;;1.40;;
70026;SDS011;57506;50.092;15.804;2023-08-06T08:00:50;2.70;;;0.93;;
70026;SDS011;57506;50.092;15.804;2023-08-06T08:03:16;2.70;;;0.80;;
70026;SDS011;57506;50.092;15.804;2023-08-06T08:05:42;4.60;;;0.90;;
70026;SDS011;57506;50.092;15.804;2023-08-06T08:08:09;2.92;;;1.13;;
70026;SDS011;57506;50.092;15.804;2023-08-06T08:10:37;3.00;;;1.17;;
70026;SDS011;57506;50.092;15.804;2023-08-06T08:13:04;2.78;;;0.90;;
70026;SDS011;57506;50.092;15.804;2023-08-06T08:15:30;3.17;;;0.98;;
70026;SDS011;57506;50.092;15.804;2023-08-06T08:17:57;2.42;;;0.82;;
70026;SDS011;57506;50.092;15.804;2023-08-06T08:20:23;3.13;;;1.00;;
70026;SDS011;57506;50.092;15.804;2023-08-06T08:22:49;2.40;;;0.73;;
70026;SDS011;57506;50.092;15.804;2023-08-06T08:25:16;2.83;;;1.08;;
70026;SDS011;57506;50.092;15.804;2023-08-06T08:27:44;2.42;;;0.80;;
70026;SDS011;57506;50.092;15.804;2023-08-06T08:30:10;2.70;;;1.00;;
70026;SDS011;57506;50.092;15.804;2023-08-06T08:32:35;4.30;;;1.25;;
70026;SDS011;57506;50.092;15.804;2023-08-06T08:35:01;2.37;;;0.70;;
70026;SDS011;57506;50.092;15.804;2023-08-06T08:37:26;2.97;;;1.10;;
70026;SDS011;57506;50.092;15.804;2023-08-06T08:39:52;3.60;;;1.30;;
70026;SDS011;57506;50.092;15.804;2023-08-06T08:42:17;3.05;;;1.20;;
70026;SDS011;57506;50.092;15.804;2023-08-06T08:44:44;2.73;;;0.90;;
70026;SDS011;57506;50.092;15.804;2023-08-06T08:47:10;3.13;;;1.13;;
70026;SDS011;57506;50.092;15.804;2023-08-06T08:49:36;3.10;;;1.10;;
70026;SDS011;57506;50.092;15.804;2023-08-06T08:52:03;3.13;;;1.20;;
70026;SDS011;57506;50.092;15.804;2023-08-06T08:54:33;3.30;;;1.30;;
70026;SDS011;57506;50.092;15.804;2023-08-06T08:57:00;2.75;;;0.82;;
70026;SDS011;57506;50.092;15.804;2023-08-06T08:59:26;2.33;;;0.73;;
70026;SDS011;57506;50.092;15.804;2023-08-06T09:01:53;3.33;;;1.50;;
70026;SDS011;57506;50.092;15.804;2023-08-06T09:04:20;3.47;;;1.30;;
70026;SDS011;57506;50.092;15.804;2023-08-06T09:06:47;2.55;;;0.85;;
70026;SDS011;57506;50.092;15.804;2023-08-06T09:09:24;2.63;;;1.10;;
70026;SDS011;57506;50.092;15.804;2023-08-06T09:11:51;3.45;;;1.40;;
70026;SDS011;57506;50.092;15.804;2023-08-06T09:14:17;2.53;;;0.80;;
70026;SDS011;57506;50.092;15.804;2023-08-06T09:16:43;3.40;;;1.37;;
70026;SDS011;57506;50.092;15.804;2023-08-06T09:19:13;3.42;;;1.13;;
70026;SDS011;57506;50.092;15.804;2023-08-06T09:21:43;3.00;;;1.02;;
70026;SDS011;57506;50.092;15.804;2023-08-06T09:24:09;2.70;;;0.80;;
70026;SDS011;57506;50.092;15.804;2023-08-06T09:26:36;2.85;;;1.10;;
70026;SDS011;57506;50.092;15.804;2023-08-06T09:29:06;2.60;;;0.93;;
70026;SDS011;57506;50.092;15.804;2023-08-06T09:34:11;3.30;;;1.15;;
70026;SDS011;57506;50.092;15.804;2023-08-06T09:36:47;3.00;;;1.00;;
70026;SDS011;57506;50.092;15.804;2023-08-06T09:39:16;3.13;;;1.02;;
70026;SDS011;57506;50.092;15.804;2023-08-06T09:41:43;3.47;;;1.40;;
70026;SDS011;57506;50.092;15.804;2023-08-06T09:44:19;2.83;;;1.10;;
70026;SDS011;57506;50.092;15.804;2023-08-06T09:46:50;2.60;;;0.82;;
70026;SDS011;57506;50.092;15.804;2023-08-06T09:49:21;2.72;;;0.80;;
70026;SDS011;57506;50.092;15.804;2023-08-06T09:51:50;2.50;;;0.82;;
70026;SDS011;57506;50.092;15.804;2023-08-06T09:54:18;3.20;;;1.50;;
70026;SDS011;57506;50.092;15.804;2023-08-06T09:56:44;3.42;;;1.38;;
70026;SDS011;57506;50.092;15.804;2023-08-06T09:59:10;3.58;;;1.33;;
70026;SDS011;57506;50.092;15.804;2023-08-06T10:01:38;3.33;;;1.45;;
70026;SDS011;57506;50.092;15.804;2023-08-06T10:04:05;3.00;;;1.10;;
70026;SDS011;57506;50.092;15.804;2023-08-06T10:06:35;3.17;;;1.17;;
70026;SDS011;57506;50.092;15.804;2023-08-06T10:09:02;2.90;;;1.25;;
70026;SDS011;57506;50.092;15.804;2023-08-06T10:11:28;4.40;;;1.90;;
70026;SDS011;57506;50.092;15.804;2023-08-06T10:14:00;4.33;;;0.97;;
70026;SDS011;57506;50.092;15.804;2023-08-06T10:16:29;3.88;;;1.70;;
70026;SDS011;57506;50.092;15.804;2023-08-06T10:18:56;3.75;;;1.10;;
70026;SDS011;57506;50.092;15.804;2023-08-06T10:21:25;7.07;;;1.40;;
70026;SDS011;57506;50.092;15.804;2023-08-06T10:23:53;3.28;;;1.40;;
70026;SDS011;57506;50.092;15.804;2023-08-06T10:26:20;4.13;;;1.73;;
70026;SDS011;57506;50.092;15.804;2023-08-06T10:28:45;3.40;;;1.45;;
70026;SDS011;57506;50.092;15.804;2023-08-06T10:31:11;3.08;;;1.38;;
70026;SDS011;57506;50.092;15.804;2023-08-06T10:33:44;2.73;;;0.90;;
70026;SDS011;57506;50.092;15.804;2023-08-06T10:36:12;2.78;;;1.02;;
70026;SDS011;57506;50.092;15.804;2023-08-06T10:38:44;2.85;;;1.00;;
70026;SDS011;57506;50.092;15.804;2023-08-06T10:41:27;2.88;;;1.00;;
70026;SDS011;57506;50.092;15.804;2023-08-06T10:44:28;3.27;;;1.50;;
70026;SDS011;57506;50.092;15.804;2023-08-06T10:46:47;2.65;;;1.02;;
70026;SDS011;57506;50.092;15.804;2023-08-06T10:49:15;2.42;;;0.82;;
70026;SDS011;57506;50.092;15.804;2023-08-06T10:51:43;3.72;;;1.73;;
70026;SDS011;57506;50.092;15.804;2023-08-06T10:54:09;3.20;;;1.23;;
70026;SDS011;57506;50.092;15.804;2023-08-06T10:56:39;2.80;;;0.93;;
70026;SDS011;57506;50.092;15.804;2023-08-06T10:59:07;3.20;;;1.35;;
70026;SDS011;57506;50.092;15.804;2023-08-06T11:01:32;3.50;;;1.33;;
70026;SDS011;57506;50.092;15.804;2023-08-06T11:04:01;3.83;;;1.60;;
70026;SDS011;57506;50.092;15.804;2023-08-06T11:06:28;5.88;;;1.90;;
70026;SDS011;57506;50.092;15.804;2023-08-06T11:08:53;3.43;;;1.53;;
70026;SDS011;57506;50.092;15.804;2023-08-06T11:11:20;5.53;;;2.20;;
70026;SDS011;57506;50.092;15.804;2023-08-06T11:13:48;3.47;;;1.20;;
70026;SDS011;57506;50.092;15.804;2023-08-06T11:16:18;3.15;;;1.35;;
70026;SDS011;57506;50.092;15.804;2023-08-06T11:18:46;4.05;;;1.67;;
70026;SDS011;57506;50.092;15.804;2023-08-06T11:21:12;3.93;;;1.90;;
70026;SDS011;57506;50.092;15.804;2023-08-06T11:23:38;5.32;;;1.98;;
70026;SDS011;57506;50.092;15.804;2023-08-06T11:26:05;4.10;;;1.73;;
70026;SDS011;57506;50.092;15.804;2023-08-06T11:28:31;3.50;;;1.90;;
70026;SDS011;57506;50.092;15.804;2023-08-06T11:30:57;4.20;;;2.00;;
70026;SDS011;57506;50.092;15.804;2023-08-06T11:33:27;4.15;;;2.08;;
70026;SDS011;57506;50.092;15.804;2023-08-06T11:35:57;4.80;;;1.40;;
70026;SDS011;57506;50.092;15.804;2023-08-06T11:38:28;3.30;;;1.50;;
70026;SDS011;57506;50.092;15.804;2023-08-06T11:40:54;3.43;;;1.57;;
70026;SDS011;57506;50.092;15.804;2023-08-06T11:43:20;4.63;;;2.08;;
70026;SDS011;57506;50.092;15.804;2023-08-06T11:45:47;4.40;;;1.73;;
70026;SDS011;57506;50.092;15.804;2023-08-06T11:48:14;4.72;;;2.35;;
70026;SDS011;57506;50.092;15.804;2023-08-06T11:50:39;2.47;;;0.93;;
70026;SDS011;57506;50.092;15.804;2023-08-06T11:53:05;2.60;;;1.07;;
70026;SDS011;57506;50.092;15.804;2023-08-06T11:55:31;5.82;;;1.05;;
70026;SDS011;57506;50.092;15.804;2023-08-06T11:57:57;3.58;;;1.95;;
70026;SDS011;57506;50.092;15.804;2023-08-06T12:00:24;3.88;;;1.83;;
70026;SDS011;57506;50.092;15.804;2023-08-06T12:02:51;4.57;;;1.63;;
70026;SDS011;57506;50.092;15.804;2023-08-06T12:05:20;4.00;;;2.10;;
70026;SDS011;57506;50.092;15.804;2023-08-06T12:07:49;3.80;;;1.77;;
70026;SDS011;57506;50.092;15.804;2023-08-06T12:10:17;3.53;;;1.38;;
70026;SDS011;57506;50.092;15.804;2023-08-06T12:12:47;3.58;;;1.50;;
70026;SDS011;57506;50.092;15.804;2023-08-06T12:15:13;3.78;;;1.42;;
70026;SDS011;57506;50.092;15.804;2023-08-06T12:17:39;3.77;;;1.43;;
70026;SDS011;57506;50.092;15.804;2023-08-06T12:20:05;3.92;;;1.92;;
70026;SDS011;57506;50.092;15.804;2023-08-06T12:22:33;4.15;;;2.25;;
70026;SDS011;57506;50.092;15.804;2023-08-06T12:25:04;4.32;;;1.90;;
70026;SDS011;57506;50.092;15.804;2023-08-06T12:27:43;4.45;;;2.13;;
70026;SDS011;57506;50.092;15.804;2023-08-06T12:30:11;3.97;;;1.93;;
70026;SDS011;57506;50.092;15.804;2023-08-06T12:32:38;4.32;;;2.33;;
70026;SDS011;57506;50.092;15.804;2023-08-06T12:35:04;2.65;;;0.95;;
70026;SDS011;57506;50.092;15.804;2023-08-06T12:37:32;3.70;;;1.52;;
70026;SDS011;57506;50.092;15.804;2023-08-06T12:39:58;3.83;;;1.80;;
70026;SDS011;57506;50.092;15.804;2023-08-06T12:42:23;3.22;;;1.42;;
70026;SDS011;57506;50.092;15.804;2023-08-06T12:44:49;3.57;;;1.60;;
70026;SDS011;57506;50.092;15.804;2023-08-06T12:47:15;5.38;;;2.20;;
70026;SDS011;57506;50.092;15.804;2023-08-06T12:49:41;3.50;;;1.35;;
70026;SDS011;57506;50.092;15.804;2023-08-06T12:52:07;3.27;;;1.40;;
70026;SDS011;57506;50.092;15.804;2023-08-06T12:54:34;4.78;;;2.75;;
70026;SDS011;57506;50.092;15.804;2023-08-06T12:57:03;5.43;;;2.55;;
70026;SDS011;57506;50.092;15.804;2023-08-06T12:59:29;3.20;;;1.50;;
70026;SDS011;57506;50.092;15.804;2023-08-06T13:01:55;6.67;;;3.03;;
70026;SDS011;57506;50.092;15.804;2023-08-06T13:04:21;6.53;;;2.53;;
70026;SDS011;57506;50.092;15.804;2023-08-06T13:06:47;5.53;;;2.70;;
70026;SDS011;57506;50.092;15.804;2023-08-06T13:09:12;6.40;;;2.38;;
70026;SDS011;57506;50.092;15.804;2023-08-06T13:11:39;5.40;;;2.73;;
70026;SDS011;57506;50.092;15.804;2023-08-06T13:14:09;7.40;;;2.60;;
70026;SDS011;57506;50.092;15.804;2023-08-06T13:16:37;5.07;;;2.72;;
70026;SDS011;57506;50.092;15.804;2023-08-06T13:19:06;8.00;;;3.75;;
70026;SDS011;57506;50.092;15.804;2023-08-06T13:21:33;5.03;;;2.20;;
70026;SDS011;57506;50.092;15.804;2023-08-06T13:24:01;5.32;;;2.33;;
70026;SDS011;57506;50.092;15.804;2023-08-06T13:26:28;2.88;;;1.25;;
70026;SDS011;57506;50.092;15.804;2023-08-06T13:28:55;6.95;;;3.20;;
70026;SDS011;57506;50.092;15.804;2023-08-06T13:31:22;8.73;;;3.83;;
70026;SDS011;57506;50.092;15.804;2023-08-06T13:33:48;6.33;;;3.77;;
70026;SDS011;57506;50.092;15.804;2023-08-06T13:36:15;5.07;;;2.60;;
70026;SDS011;57506;50.092;15.804;2023-08-06T13:38:41;3.55;;;1.85;;
70026;SDS011;57506;50.092;15.804;2023-08-06T13:41:07;3.50;;;1.70;;
70026;SDS011;57506;50.092;15.804;2023-08-06T13:43:32;3.35;;;1.58;;
70026;SDS011;57506;50.092;15.804;2023-08-06T13:45:58;2.42;;;0.80;;
70026;SDS011;57506;50.092;15.804;2023-08-06T13:48:24;3.27;;;1.30;;
70026;SDS011;57506;50.092;15.804;2023-08-06T13:50:50;4.30;;;2.42;;
70026;SDS011;57506;50.092;15.804;2023-08-06T13:53:16;5.73;;;1.90;;
70026;SDS011;57506;50.092;15.804;2023-08-06T13:55:41;4.38;;;2.50;;
70026;SDS011;57506;50.092;15.804;2023-08-06T13:58:07;4.87;;;2.43;;
70026;SDS011;57506;50.092;15.804;2023-08-06T14:00:33;3.50;;;1.85;;
70026;SDS011;57506;50.092;15.804;2023-08-06T14:03:00;3.92;;;1.02;;
70026;SDS011;57506;50.092;15.804;2023-08-06T14:05:26;5.50;;;2.93;;
70026;SDS011;57506;50.092;15.804;2023-08-06T14:07:52;5.30;;;2.57;;
70026;SDS011;57506;50.092;15.804;2023-08-06T14:10:18;6.13;;;3.45;;
70026;SDS011;57506;50.092;15.804;2023-08-06T14:12:43;4.43;;;2.00;;
70026;SDS011;57506;50.092;15.804;2023-08-06T14:15:10;5.55;;;2.33;;
70026;SDS011;57506;50.092;15.804;2023-08-06T14:17:36;7.63;;;4.70;;
70026;SDS011;57506;50.092;15.804;2023-08-06T14:20:03;5.60;;;3.10;;
70026;SDS011;57506;50.092;15.804;2023-08-06T14:22:30;4.25;;;2.72;;
70026;SDS011;57506;50.092;15.804;2023-08-06T14:24:57;9.48;;;4.47;;
70026;SDS011;57506;50.092;15.804;2023-08-06T14:27:23;11.82;;;2.90;;
70026;SDS011;57506;50.092;15.804;2023-08-06T14:29:49;5.13;;;1.98;;
70026;SDS011;57506;50.092;15.804;2023-08-06T14:32:15;3.23;;;1.50;;
70026;SDS011;57506;50.092;15.804;2023-08-06T14:34:43;6.53;;;3.35;;
70026;SDS011;57506;50.092;15.804;2023-08-06T14:37:10;5.05;;;1.98;;
70026;SDS011;57506;50.092;15.804;2023-08-06T14:39:36;4.17;;;2.07;;
70026;SDS011;57506;50.092;15.804;2023-08-06T14:42:03;2.97;;;1.35;;